sensor_id;sensor_type;location;lat;lon;timestamp;P1;durP1;ratioP1;P2;durP2;ratioP2
17520;SDS011;8878;-33.370;-70.552;2023-03-14T00:01:43;0.68;;;0.68;;
17520;SDS011;8878;-33.370;-70.552;2023-03-14T00:04:15;0.40;;;0.40;;
17520;SDS011;8878;-33.370;-70.552;2023-03-14T00:06:45;0.40;;;0.40;;
17520;SDS011;8878;-33.370;-70.552;2023-03-14T00:09:16;2.83;;;0.95;;
17520;SDS011;8878;-33.370;-70.552;2023-03-14T00:11:45;1.95;;;0.52;;
17520;SDS011;8878;-33.370;-70.552;2023-03-14T00:14:17;0.80;;;0.60;;
17520;SDS011;8878;-33.370;-70.552;2023-03-14T00:16:47;2.40;;;1.00;;
17520;SDS011;8878;-33.370;-70.552;2023-03-14T00:19:19;0.50;;;0.50;;
17520;SDS011;8878;-33.370;-70.552;2023-03-14T00:21:49;1.33;;;1.23;;
17520;SDS011;8878;-33.370;-70.552;2023-03-14T00:24:19;3.95;;;0.60;;
17520;SDS011;8878;-33.370;-70.552;2023-03-14T00:26:48;0.50;;;0.50;;
17520;SDS011;8878;-33.370;-70.552;2023-03-14T00:29:18;1.10;;;0.55;;
17520;SDS011;8878;-33.370;-70.552;2023-03-14T00:31:49;0.98;;;0.90;;
17520;SDS011;8878;-33.370;-70.552;2023-03-14T00:36:56;0.40;;;0.40;;
17520;SDS011;8878;-33.370;-70.552;2023-03-14T00:39:25;0.45;;;0.45;;
17520;SDS011;8878;-33.370;-70.552;2023-03-14T00:41:55;1.35;;;0.47;;
17520;SDS011;8878;-33.370;-70.552;2023-03-14T00:44:24;7.93;;;1.13;;
17520;SDS011;8878;-33.370;-70.552;2023-03-14T00:46:54;1.25;;;0.80;;
17520;SDS011;8878;-33.370;-70.552;2023-03-14T00:49:25;3.08;;;0.70;;
17520;SDS011;8878;-33.370;-70.552;2023-03-14T00:51:55;0.70;;;0.50;;
17520;SDS011;8878;-33.370;-70.552;2023-03-14T00:54:24;0.60;;;0.60;;
17520;SDS011;8878;-33.370;-70.552;2023-03-14T00:56:53;3.95;;;0.73;;
17520;SDS011;8878;-33.370;-70.552;2023-03-14T00:59:23;2.55;;;0.82;;
17520;SDS011;8878;-33.370;-70.552;2023-03-14T01:01:54;1.45;;;0.63;;
17520;SDS011;8878;-33.370;-70.552;2023-03-14T01:04:25;0.65;;;0.65;;
17520;SDS011;8878;-33.370;-70.552;2023-03-14T01:06:57;3.72;;;0.52;;
17520;SDS011;8878;-33.370;-70.552;2023-03-14T01:09:27;7.95;;;1.33;;
17520;SDS011;8878;-33.370;-70.552;2023-03-14T01:11:56;0.90;;;0.50;;
17520;SDS011;8878;-33.370;-70.552;2023-03-14T01:14:26;0.60;;;0.60;;
17520;SDS011;8878;-33.370;-70.552;2023-03-14T01:16:57;1.00;;;0.88;;
17520;SDS011;8878;-33.370;-70.552;2023-03-14T01:19:29;1.50;;;0.88;;
17520;SDS011;8878;-33.370;-70.552;2023-03-14T01:21:59;0.77;;;0.75;;
17520;SDS011;8878;-33.370;-70.552;2023-03-14T01:24:28;0.63;;;0.60;;
17520;SDS011;8878;-33.370;-70.552;2023-03-14T01:26:57;1.05;;;1.00;;
17520;SDS011;8878;-33.370;-70.552;2023-03-14T01:29:28;0.70;;;0.70;;
17520;SDS011;8878;-33.370;-70.552;2023-03-14T01:31:57;0.30;;;0.30;;
17520;SDS011;8878;-33.370;-70.552;2023-03-14T01:34:28;0.77;;;0.55;;
17520;SDS011;8878;-33.370;-70.552;2023-03-14T01:36:58;2.38;;;0.60;;
17520;SDS011;8878;-33.370;-70.552;2023-03-14T01:39:28;0.75;;;0.65;;
17520;SDS011;8878;-33.370;-70.552;2023-03-14T01:41:59;3.55;;;0.70;;
17520;SDS011;8878;-33.370;-70.552;2023-03-14T01:47:17;0.52;;;0.52;;
17520;SDS011;8878;-33.370;-70.552;2023-03-14T01:49:49;5.60;;;1.05;;
17520;SDS011;8878;-33.370;-70.552;2023-03-14T01:52:25;1.77;;;0.68;;
17520;SDS011;8878;-33.370;-70.552;2023-03-14T01:54:59;1.65;;;0.90;;
17520;SDS011;8878;-33.370;-70.552;2023-03-14T01:57:32;0.40;;;0.40;;
17520;SDS011;8878;-33.370;-70.552;2023-03-14T02:00:06;0.75;;;0.30;;
17520;SDS011;8878;-33.370;-70.552;2023-03-14T02:02:39;1.40;;;0.93;;
17520;SDS011;8878;-33.370;-70.552;2023-03-14T02:05:14;0.63;;;0.50;;
17520;SDS011;8878;-33.370;-70.552;2023-03-14T02:07:48;0.60;;;0.60;;
17520;SDS011;8878;-33.370;-70.552;2023-03-14T02:10:20;1.35;;;0.60;;
17520;SDS011;8878;-33.370;-70.552;2023-03-14T02:12:53;5.28;;;0.70;;
17520;SDS011;8878;-33.370;-70.552;2023-03-14T02:15:25;1.15;;;0.73;;
17520;SDS011;8878;-33.370;-70.552;2023-03-14T02:17:57;0.70;;;0.70;;
17520;SDS011;8878;-33.370;-70.552;2023-03-14T02:20:30;3.67;;;0.70;;
17520;SDS011;8878;-33.370;-70.552;2023-03-14T02:23:07;7.20;;;0.85;;
17520;SDS011;8878;-33.370;-70.552;2023-03-14T02:25:47;0.85;;;0.70;;
17520;SDS011;8878;-33.370;-70.552;2023-03-14T02:28:23;3.22;;;0.70;;
17520;SDS011;8878;-33.370;-70.552;2023-03-14T02:31:01;1.88;;;0.57;;
17520;SDS011;8878;-33.370;-70.552;2023-03-14T02:33:32;1.40;;;0.60;;
17520;SDS011;8878;-33.370;-70.552;2023-03-14T02:36:04;0.68;;;0.43;;
17520;SDS011;8878;-33.370;-70.552;2023-03-14T02:38:35;1.83;;;0.50;;
17520;SDS011;8878;-33.370;-70.552;2023-03-14T02:41:12;0.55;;;0.55;;
17520;SDS011;8878;-33.370;-70.552;2023-03-14T02:43:45;3.42;;;1.65;;
17520;SDS011;8878;-33.370;-70.552;2023-03-14T02:46:14;1.80;;;0.57;;
17520;SDS011;8878;-33.370;-70.552;2023-03-14T02:48:47;8.10;;;0.77;;
17520;SDS011;8878;-33.370;-70.552;2023-03-14T02:51:20;1.35;;;0.40;;
17520;SDS011;8878;-33.370;-70.552;2023-03-14T02:53:51;1.25;;;0.82;;
17520;SDS011;8878;-33.370;-70.552;2023-03-14T02:56:21;1.77;;;1.42;;
17520;SDS011;8878;-33.370;-70.552;2023-03-14T02:58:52;0.55;;;0.52;;
17520;SDS011;8878;-33.370;-70.552;2023-03-14T03:01:23;0.68;;;0.43;;
17520;SDS011;8878;-33.370;-70.552;2023-03-14T03:03:54;0.88;;;0.85;;
17520;SDS011;8878;-33.370;-70.552;2023-03-14T03:06:25;2.72;;;0.70;;
17520;SDS011;8878;-33.370;-70.552;2023-03-14T03:08:54;1.30;;;0.63;;
17520;SDS011;8878;-33.370;-70.552;2023-03-14T03:11:24;1.40;;;0.57;;
17520;SDS011;8878;-33.370;-70.552;2023-03-14T03:13:56;2.30;;;0.95;;
17520;SDS011;8878;-33.370;-70.552;2023-03-14T03:16:25;2.83;;;1.20;;
17520;SDS011;8878;-33.370;-70.552;2023-03-14T03:18:55;2.47;;;0.88;;
17520;SDS011;8878;-33.370;-70.552;2023-03-14T03:21:24;4.35;;;1.02;;
17520;SDS011;8878;-33.370;-70.552;2023-03-14T03:23:54;6.43;;;0.80;;
17520;SDS011;8878;-33.370;-70.552;2023-03-14T03:26:26;1.17;;;0.82;;
17520;SDS011;8878;-33.370;-70.552;2023-03-14T03:28:58;1.55;;;0.80;;
17520;SDS011;8878;-33.370;-70.552;2023-03-14T03:31:27;0.73;;;0.73;;
17520;SDS011;8878;-33.370;-70.552;2023-03-14T03:33:57;0.50;;;0.43;;
17520;SDS011;8878;-33.370;-70.552;2023-03-14T03:36:26;0.90;;;0.40;;
17520;SDS011;8878;-33.370;-70.552;2023-03-14T03:38:56;1.55;;;0.77;;
17520;SDS011;8878;-33.370;-70.552;2023-03-14T03:41:25;7.13;;;1.33;;
17520;SDS011;8878;-33.370;-70.552;2023-03-14T03:43:54;0.43;;;0.43;;
17520;SDS011;8878;-33.370;-70.552;2023-03-14T03:46:26;0.88;;;0.75;;
17520;SDS011;8878;-33.370;-70.552;2023-03-14T03:48:55;1.00;;;0.63;;
17520;SDS011;8878;-33.370;-70.552;2023-03-14T03:51:26;1.35;;;0.70;;
17520;SDS011;8878;-33.370;-70.552;2023-03-14T03:53:56;0.65;;;0.65;;
17520;SDS011;8878;-33.370;-70.552;2023-03-14T03:56:27;1.85;;;0.32;;
17520;SDS011;8878;-33.370;-70.552;2023-03-14T03:58:57;2.08;;;1.02;;
17520;SDS011;8878;-33.370;-70.552;2023-03-14T04:01:28;0.45;;;0.45;;
17520;SDS011;8878;-33.370;-70.552;2023-03-14T04:03:58;3.25;;;1.25;;
17520;SDS011;8878;-33.370;-70.552;2023-03-14T04:06:28;0.98;;;0.80;;
17520;SDS011;8878;-33.370;-70.552;2023-03-14T04:08:58;10.25;;;1.15;;
17520;SDS011;8878;-33.370;-70.552;2023-03-14T04:11:28;1.23;;;0.82;;
17520;SDS011;8878;-33.370;-70.552;2023-03-14T04:13:57;1.42;;;0.98;;
17520;SDS011;8878;-33.370;-70.552;2023-03-14T04:16:29;0.40;;;0.40;;
17520;SDS011;8878;-33.370;-70.552;2023-03-14T04:18:59;1.85;;;0.73;;
17520;SDS011;8878;-33.370;-70.552;2023-03-14T04:21:29;3.72;;;1.00;;
17520;SDS011;8878;-33.370;-70.552;2023-03-14T04:23:59;1.45;;;0.50;;
17520;SDS011;8878;-33.370;-70.552;2023-03-14T04:26:28;1.77;;;0.52;;
17520;SDS011;8878;-33.370;-70.552;2023-03-14T04:28:58;2.25;;;0.77;;
17520;SDS011;8878;-33.370;-70.552;2023-03-14T04:31:29;2.10;;;0.82;;
17520;SDS011;8878;-33.370;-70.552;2023-03-14T04:33:58;0.90;;;0.52;;
17520;SDS011;8878;-33.370;-70.552;2023-03-14T04:36:28;0.80;;;0.60;;
17520;SDS011;8878;-33.370;-70.552;2023-03-14T04:38:59;4.20;;;0.57;;
17520;SDS011;8878;-33.370;-70.552;2023-03-14T04:41:29;1.02;;;0.65;;
17520;SDS011;8878;-33.370;-70.552;2023-03-14T04:43:59;0.38;;;0.38;;
17520;SDS011;8878;-33.370;-70.552;2023-03-14T04:46:32;0.85;;;0.85;;
17520;SDS011;8878;-33.370;-70.552;2023-03-14T04:49:01;3.08;;;0.50;;
17520;SDS011;8878;-33.370;-70.552;2023-03-14T04:51:30;1.20;;;1.15;;
17520;SDS011;8878;-33.370;-70.552;2023-03-14T04:54:01;0.35;;;0.35;;
17520;SDS011;8878;-33.370;-70.552;2023-03-14T04:56:31;1.13;;;0.65;;
17520;SDS011;8878;-33.370;-70.552;2023-03-14T04:59:00;0.28;;;0.28;;
17520;SDS011;8878;-33.370;-70.552;2023-03-14T05:01:32;6.90;;;0.85;;
17520;SDS011;8878;-33.370;-70.552;2023-03-14T05:04:01;0.30;;;0.30;;
17520;SDS011;8878;-33.370;-70.552;2023-03-14T05:06:31;1.08;;;0.60;;
17520;SDS011;8878;-33.370;-70.552;2023-03-14T05:09:01;0.93;;;0.93;;
17520;SDS011;8878;-33.370;-70.552;2023-03-14T05:11:31;1.02;;;0.55;;
17520;SDS011;8878;-33.370;-70.552;2023-03-14T05:14:02;0.57;;;0.57;;
17520;SDS011;8878;-33.370;-70.552;2023-03-14T05:16:33;0.47;;;0.47;;
17520;SDS011;8878;-33.370;-70.552;2023-03-14T05:19:02;0.77;;;0.77;;
17520;SDS011;8878;-33.370;-70.552;2023-03-14T05:21:34;1.25;;;1.00;;
17520;SDS011;8878;-33.370;-70.552;2023-03-14T05:24:04;1.95;;;0.68;;
17520;SDS011;8878;-33.370;-70.552;2023-03-14T05:26:33;0.50;;;0.50;;
17520;SDS011;8878;-33.370;-70.552;2023-03-14T05:29:03;4.75;;;0.75;;
17520;SDS011;8878;-33.370;-70.552;2023-03-14T05:31:34;6.68;;;0.85;;
17520;SDS011;8878;-33.370;-70.552;2023-03-14T05:34:03;0.73;;;0.50;;
17520;SDS011;8878;-33.370;-70.552;2023-03-14T05:36:33;0.82;;;0.47;;
17520;SDS011;8878;-33.370;-70.552;2023-03-14T05:39:02;0.43;;;0.43;;
17520;SDS011;8878;-33.370;-70.552;2023-03-14T05:41:32;0.70;;;0.70;;
17520;SDS011;8878;-33.370;-70.552;2023-03-14T05:44:02;3.10;;;0.80;;
17520;SDS011;8878;-33.370;-70.552;2023-03-14T05:46:31;1.65;;;0.88;;
17520;SDS011;8878;-33.370;-70.552;2023-03-14T05:49:02;0.60;;;0.60;;
17520;SDS011;8878;-33.370;-70.552;2023-03-14T05:51:32;0.57;;;0.57;;
17520;SDS011;8878;-33.370;-70.552;2023-03-14T05:54:02;1.52;;;1.17;;
17520;SDS011;8878;-33.370;-70.552;2023-03-14T05:56:32;7.53;;;0.73;;
17520;SDS011;8878;-33.370;-70.552;2023-03-14T05:59:01;0.30;;;0.30;;
17520;SDS011;8878;-33.370;-70.552;2023-03-14T06:01:31;1.73;;;0.70;;
17520;SDS011;8878;-33.370;-70.552;2023-03-14T06:04:03;0.50;;;0.50;;
17520;SDS011;8878;-33.370;-70.552;2023-03-14T06:06:32;0.50;;;0.50;;
17520;SDS011;8878;-33.370;-70.552;2023-03-14T06:09:01;2.58;;;0.95;;
17520;SDS011;8878;-33.370;-70.552;2023-03-14T06:11:32;1.10;;;0.70;;
17520;SDS011;8878;-33.370;-70.552;2023-03-14T06:16:56;0.93;;;0.80;;
17520;SDS011;8878;-33.370;-70.552;2023-03-14T06:19:26;3.30;;;0.73;;
17520;SDS011;8878;-33.370;-70.552;2023-03-14T06:21:55;0.80;;;0.80;;
17520;SDS011;8878;-33.370;-70.552;2023-03-14T06:24:25;0.63;;;0.60;;
17520;SDS011;8878;-33.370;-70.552;2023-03-14T06:26:55;1.30;;;0.50;;
17520;SDS011;8878;-33.370;-70.552;2023-03-14T06:29:24;10.52;;;0.95;;
17520;SDS011;8878;-33.370;-70.552;2023-03-14T06:31:56;3.78;;;0.88;;
17520;SDS011;8878;-33.370;-70.552;2023-03-14T06:34:26;0.70;;;0.70;;
17520;SDS011;8878;-33.370;-70.552;2023-03-14T06:36:56;0.88;;;0.68;;
17520;SDS011;8878;-33.370;-70.552;2023-03-14T06:39:26;3.70;;;0.55;;
17520;SDS011;8878;-33.370;-70.552;2023-03-14T06:41:58;1.10;;;1.00;;
17520;SDS011;8878;-33.370;-70.552;2023-03-14T06:44:27;0.35;;;0.35;;
17520;SDS011;8878;-33.370;-70.552;2023-03-14T06:47:08;1.02;;;0.80;;
17520;SDS011;8878;-33.370;-70.552;2023-03-14T06:49:37;0.40;;;0.40;;
17520;SDS011;8878;-33.370;-70.552;2023-03-14T06:52:06;0.98;;;0.85;;
17520;SDS011;8878;-33.370;-70.552;2023-03-14T06:54:36;0.93;;;0.85;;
17520;SDS011;8878;-33.370;-70.552;2023-03-14T06:57:05;1.33;;;0.70;;
17520;SDS011;8878;-33.370;-70.552;2023-03-14T06:59:34;0.52;;;0.52;;
17520;SDS011;8878;-33.370;-70.552;2023-03-14T07:02:04;1.98;;;0.40;;
17520;SDS011;8878;-33.370;-70.552;2023-03-14T07:04:38;0.22;;;0.22;;
17520;SDS011;8878;-33.370;-70.552;2023-03-14T07:07:08;1.63;;;0.80;;
17520;SDS011;8878;-33.370;-70.552;2023-03-14T07:09:37;1.02;;;0.95;;
17520;SDS011;8878;-33.370;-70.552;2023-03-14T07:12:07;1.10;;;1.00;;
17520;SDS011;8878;-33.370;-70.552;2023-03-14T07:14:36;3.88;;;0.80;;
17520;SDS011;8878;-33.370;-70.552;2023-03-14T07:17:05;4.22;;;0.98;;
17520;SDS011;8878;-33.370;-70.552;2023-03-14T07:19:36;1.17;;;0.93;;
17520;SDS011;8878;-33.370;-70.552;2023-03-14T07:22:07;0.55;;;0.43;;
17520;SDS011;8878;-33.370;-70.552;2023-03-14T07:24:36;0.43;;;0.35;;
17520;SDS011;8878;-33.370;-70.552;2023-03-14T07:27:07;0.85;;;0.70;;
17520;SDS011;8878;-33.370;-70.552;2023-03-14T07:32:09;0.75;;;0.68;;
17520;SDS011;8878;-33.370;-70.552;2023-03-14T07:34:42;0.68;;;0.55;;
17520;SDS011;8878;-33.370;-70.552;2023-03-14T07:37:11;0.32;;;0.30;;
17520;SDS011;8878;-33.370;-70.552;2023-03-14T07:39:40;1.45;;;0.70;;
17520;SDS011;8878;-33.370;-70.552;2023-03-14T07:42:10;1.10;;;0.70;;
17520;SDS011;8878;-33.370;-70.552;2023-03-14T07:44:40;0.95;;;0.95;;
17520;SDS011;8878;-33.370;-70.552;2023-03-14T07:47:09;2.58;;;1.05;;
17520;SDS011;8878;-33.370;-70.552;2023-03-14T07:49:38;0.98;;;0.70;;
17520;SDS011;8878;-33.370;-70.552;2023-03-14T07:52:09;5.82;;;0.68;;
17520;SDS011;8878;-33.370;-70.552;2023-03-14T07:54:40;3.80;;;0.68;;
17520;SDS011;8878;-33.370;-70.552;2023-03-14T07:57:10;1.63;;;1.38;;
17520;SDS011;8878;-33.370;-70.552;2023-03-14T07:59:39;1.40;;;0.73;;
17520;SDS011;8878;-33.370;-70.552;2023-03-14T08:02:09;2.85;;;1.25;;
17520;SDS011;8878;-33.370;-70.552;2023-03-14T08:04:39;1.65;;;1.13;;
17520;SDS011;8878;-33.370;-70.552;2023-03-14T08:07:12;0.50;;;0.50;;
17520;SDS011;8878;-33.370;-70.552;2023-03-14T08:09:41;0.63;;;0.63;;
17520;SDS011;8878;-33.370;-70.552;2023-03-14T08:12:11;1.13;;;1.13;;
17520;SDS011;8878;-33.370;-70.552;2023-03-14T08:14:42;0.40;;;0.40;;
17520;SDS011;8878;-33.370;-70.552;2023-03-14T08:17:12;0.52;;;0.40;;
17520;SDS011;8878;-33.370;-70.552;2023-03-14T08:19:42;0.95;;;0.65;;
17520;SDS011;8878;-33.370;-70.552;2023-03-14T08:22:14;0.22;;;0.22;;
17520;SDS011;8878;-33.370;-70.552;2023-03-14T08:24:44;1.45;;;0.70;;
17520;SDS011;8878;-33.370;-70.552;2023-03-14T08:27:13;0.55;;;0.38;;
17520;SDS011;8878;-33.370;-70.552;2023-03-14T08:29:42;0.82;;;0.82;;
17520;SDS011;8878;-33.370;-70.552;2023-03-14T08:32:14;0.60;;;0.60;;
17520;SDS011;8878;-33.370;-70.552;2023-03-14T08:34:43;0.90;;;0.77;;
17520;SDS011;8878;-33.370;-70.552;2023-03-14T08:37:15;1.27;;;0.57;;
17520;SDS011;8878;-33.370;-70.552;2023-03-14T08:39:46;0.45;;;0.45;;
17520;SDS011;8878;-33.370;-70.552;2023-03-14T08:42:16;0.47;;;0.47;;
17520;SDS011;8878;-33.370;-70.552;2023-03-14T08:44:46;0.55;;;0.55;;
17520;SDS011;8878;-33.370;-70.552;2023-03-14T08:47:15;0.80;;;0.80;;
17520;SDS011;8878;-33.370;-70.552;2023-03-14T08:49:44;0.30;;;0.30;;
17520;SDS011;8878;-33.370;-70.552;2023-03-14T08:52:16;1.40;;;0.90;;
17520;SDS011;8878;-33.370;-70.552;2023-03-14T08:54:45;4.63;;;1.10;;
17520;SDS011;8878;-33.370;-70.552;2023-03-14T08:57:14;1.33;;;0.80;;
17520;SDS011;8878;-33.370;-70.552;2023-03-14T08:59:44;0.30;;;0.30;;
17520;SDS011;8878;-33.370;-70.552;2023-03-14T09:02:13;0.93;;;0.77;;
17520;SDS011;8878;-33.370;-70.552;2023-03-14T09:04:44;0.40;;;0.40;;
17520;SDS011;8878;-33.370;-70.552;2023-03-14T09:07:13;1.38;;;1.13;;
17520;SDS011;8878;-33.370;-70.552;2023-03-14T09:09:44;0.85;;;0.55;;
17520;SDS011;8878;-33.370;-70.552;2023-03-14T09:12:13;0.73;;;0.70;;
17520;SDS011;8878;-33.370;-70.552;2023-03-14T09:14:43;2.55;;;0.63;;
17520;SDS011;8878;-33.370;-70.552;2023-03-14T09:17:12;1.10;;;1.00;;
17520;SDS011;8878;-33.370;-70.552;2023-03-14T09:19:41;4.13;;;1.02;;
17520;SDS011;8878;-33.370;-70.552;2023-03-14T09:22:11;4.75;;;1.00;;
17520;SDS011;8878;-33.370;-70.552;2023-03-14T09:24:42;1.20;;;0.80;;
17520;SDS011;8878;-33.370;-70.552;2023-03-14T09:27:11;1.50;;;0.88;;
17520;SDS011;8878;-33.370;-70.552;2023-03-14T09:29:41;0.57;;;0.43;;
17520;SDS011;8878;-33.370;-70.552;2023-03-14T09:32:10;0.38;;;0.38;;
17520;SDS011;8878;-33.370;-70.552;2023-03-14T09:34:39;1.40;;;0.85;;
17520;SDS011;8878;-33.370;-70.552;2023-03-14T09:37:11;0.60;;;0.60;;
17520;SDS011;8878;-33.370;-70.552;2023-03-14T09:39:43;1.67;;;1.33;;
17520;SDS011;8878;-33.370;-70.552;2023-03-14T09:42:13;0.70;;;0.70;;
17520;SDS011;8878;-33.370;-70.552;2023-03-14T09:44:48;2.30;;;1.08;;
17520;SDS011;8878;-33.370;-70.552;2023-03-14T09:47:23;0.75;;;0.75;;
17520;SDS011;8878;-33.370;-70.552;2023-03-14T09:49:53;1.70;;;0.75;;
17520;SDS011;8878;-33.370;-70.552;2023-03-14T09:52:24;1.05;;;1.05;;
17520;SDS011;8878;-33.370;-70.552;2023-03-14T09:55:01;1.70;;;0.77;;
17520;SDS011;8878;-33.370;-70.552;2023-03-14T09:57:33;1.38;;;0.93;;
17520;SDS011;8878;-33.370;-70.552;2023-03-14T10:00:05;0.60;;;0.60;;
17520;SDS011;8878;-33.370;-70.552;2023-03-14T10:02:43;0.50;;;0.50;;
17520;SDS011;8878;-33.370;-70.552;2023-03-14T10:05:18;1.77;;;1.33;;
17520;SDS011;8878;-33.370;-70.552;2023-03-14T10:07:49;0.50;;;0.50;;
17520;SDS011;8878;-33.370;-70.552;2023-03-14T10:10:21;3.42;;;0.95;;
17520;SDS011;8878;-33.370;-70.552;2023-03-14T10:12:55;0.52;;;0.52;;
17520;SDS011;8878;-33.370;-70.552;2023-03-14T10:15:26;0.38;;;0.38;;
17520;SDS011;8878;-33.370;-70.552;2023-03-14T10:18:00;2.53;;;0.85;;
17520;SDS011;8878;-33.370;-70.552;2023-03-14T10:20:31;2.35;;;0.73;;
17520;SDS011;8878;-33.370;-70.552;2023-03-14T10:23:02;1.98;;;0.60;;
17520;SDS011;8878;-33.370;-70.552;2023-03-14T10:25:37;0.70;;;0.70;;
17520;SDS011;8878;-33.370;-70.552;2023-03-14T10:28:10;1.35;;;0.95;;
17520;SDS011;8878;-33.370;-70.552;2023-03-14T10:30:52;0.93;;;0.65;;
17520;SDS011;8878;-33.370;-70.552;2023-03-14T10:33:23;1.23;;;1.13;;
17520;SDS011;8878;-33.370;-70.552;2023-03-14T10:35:54;0.77;;;0.77;;
17520;SDS011;8878;-33.370;-70.552;2023-03-14T10:38:25;1.65;;;0.40;;
17520;SDS011;8878;-33.370;-70.552;2023-03-14T10:40:58;1.00;;;0.70;;
17520;SDS011;8878;-33.370;-70.552;2023-03-14T10:43:31;0.65;;;0.65;;
17520;SDS011;8878;-33.370;-70.552;2023-03-14T10:46:05;2.42;;;0.93;;
17520;SDS011;8878;-33.370;-70.552;2023-03-14T10:48:38;0.50;;;0.50;;
17520;SDS011;8878;-33.370;-70.552;2023-03-14T10:51:09;0.65;;;0.65;;
17520;SDS011;8878;-33.370;-70.552;2023-03-14T10:53:40;1.08;;;0.55;;
17520;SDS011;8878;-33.370;-70.552;2023-03-14T10:56:14;0.45;;;0.45;;
17520;SDS011;8878;-33.370;-70.552;2023-03-14T10:58:47;0.80;;;0.47;;
17520;SDS011;8878;-33.370;-70.552;2023-03-14T11:04:10;9.02;;;1.15;;
17520;SDS011;8878;-33.370;-70.552;2023-03-14T11:06:49;17.88;;;1.40;;
17520;SDS011;8878;-33.370;-70.552;2023-03-14T11:09:28;0.70;;;0.55;;
17520;SDS011;8878;-33.370;-70.552;2023-03-14T11:12:09;0.98;;;0.98;;
17520;SDS011;8878;-33.370;-70.552;2023-03-14T11:14:51;4.13;;;1.15;;
17520;SDS011;8878;-33.370;-70.552;2023-03-14T11:17:29;3.35;;;0.90;;
17520;SDS011;8878;-33.370;-70.552;2023-03-14T11:20:04;0.52;;;0.52;;
17520;SDS011;8878;-33.370;-70.552;2023-03-14T11:22:49;1.33;;;0.80;;
17520;SDS011;8878;-33.370;-70.552;2023-03-14T11:25:27;1.67;;;1.08;;
17520;SDS011;8878;-33.370;-70.552;2023-03-14T11:28:08;0.70;;;0.60;;
17520;SDS011;8878;-33.370;-70.552;2023-03-14T11:30:47;2.42;;;0.98;;
17520;SDS011;8878;-33.370;-70.552;2023-03-14T11:33:21;6.32;;;0.93;;
17520;SDS011;8878;-33.370;-70.552;2023-03-14T11:35:58;1.10;;;0.63;;
17520;SDS011;8878;-33.370;-70.552;2023-03-14T11:38:34;0.55;;;0.55;;
17520;SDS011;8878;-33.370;-70.552;2023-03-14T11:41:10;0.45;;;0.45;;
17520;SDS011;8878;-33.370;-70.552;2023-03-14T11:43:46;1.25;;;0.65;;
17520;SDS011;8878;-33.370;-70.552;2023-03-14T11:46:18;1.50;;;0.88;;
17520;SDS011;8878;-33.370;-70.552;2023-03-14T11:48:55;3.97;;;1.48;;
17520;SDS011;8878;-33.370;-70.552;2023-03-14T11:51:29;1.67;;;1.25;;
17520;SDS011;8878;-33.370;-70.552;2023-03-14T11:54:04;3.90;;;0.68;;
17520;SDS011;8878;-33.370;-70.552;2023-03-14T11:56:44;1.27;;;1.13;;
17520;SDS011;8878;-33.370;-70.552;2023-03-14T11:59:22;3.42;;;1.17;;
17520;SDS011;8878;-33.370;-70.552;2023-03-14T12:01:56;0.88;;;0.80;;
17520;SDS011;8878;-33.370;-70.552;2023-03-14T12:04:34;0.85;;;0.65;;
17520;SDS011;8878;-33.370;-70.552;2023-03-14T12:07:16;0.95;;;0.95;;
17520;SDS011;8878;-33.370;-70.552;2023-03-14T12:09:47;1.73;;;0.68;;
17520;SDS011;8878;-33.370;-70.552;2023-03-14T12:12:18;5.00;;;1.88;;
17520;SDS011;8878;-33.370;-70.552;2023-03-14T12:14:55;15.00;;;1.45;;
17520;SDS011;8878;-33.370;-70.552;2023-03-14T12:17:33;1.17;;;1.08;;
17520;SDS011;8878;-33.370;-70.552;2023-03-14T12:20:06;1.27;;;1.10;;
17520;SDS011;8878;-33.370;-70.552;2023-03-14T12:22:47;1.48;;;1.00;;
17520;SDS011;8878;-33.370;-70.552;2023-03-14T12:25:19;2.22;;;1.63;;
17520;SDS011;8878;-33.370;-70.552;2023-03-14T12:28:03;1.40;;;1.00;;
17520;SDS011;8878;-33.370;-70.552;2023-03-14T12:30:48;2.63;;;1.88;;
17520;SDS011;8878;-33.370;-70.552;2023-03-14T12:36:20;3.13;;;2.05;;
17520;SDS011;8878;-33.370;-70.552;2023-03-14T12:39:21;13.88;;;3.72;;
17520;SDS011;8878;-33.370;-70.552;2023-03-14T12:42:05;1.30;;;1.15;;
17520;SDS011;8878;-33.370;-70.552;2023-03-14T12:44:42;1.40;;;1.20;;
17520;SDS011;8878;-33.370;-70.552;2023-03-14T12:50:25;3.20;;;1.70;;
17520;SDS011;8878;-33.370;-70.552;2023-03-14T12:56:14;3.38;;;1.40;;
17520;SDS011;8878;-33.370;-70.552;2023-03-14T12:58:53;3.45;;;2.10;;
17520;SDS011;8878;-33.370;-70.552;2023-03-14T13:01:53;1.30;;;0.88;;
17520;SDS011;8878;-33.370;-70.552;2023-03-14T13:04:31;2.03;;;1.17;;
17520;SDS011;8878;-33.370;-70.552;2023-03-14T13:07:03;10.38;;;0.88;;
17520;SDS011;8878;-33.370;-70.552;2023-03-14T13:09:50;2.90;;;1.30;;
17520;SDS011;8878;-33.370;-70.552;2023-03-14T13:12:23;10.02;;;1.65;;
17520;SDS011;8878;-33.370;-70.552;2023-03-14T13:14:59;3.58;;;1.30;;
17520;SDS011;8878;-33.370;-70.552;2023-03-14T13:17:31;12.93;;;1.23;;
17520;SDS011;8878;-33.370;-70.552;2023-03-14T13:20:05;3.05;;;2.40;;
17520;SDS011;8878;-33.370;-70.552;2023-03-14T13:22:45;2.22;;;0.98;;
17520;SDS011;8878;-33.370;-70.552;2023-03-14T13:25:15;2.13;;;1.55;;
17520;SDS011;8878;-33.370;-70.552;2023-03-14T13:27:46;1.67;;;1.15;;
17520;SDS011;8878;-33.370;-70.552;2023-03-14T13:30:18;2.60;;;1.67;;
17520;SDS011;8878;-33.370;-70.552;2023-03-14T13:32:52;1.27;;;1.17;;
17520;SDS011;8878;-33.370;-70.552;2023-03-14T13:35:25;4.00;;;1.60;;
17520;SDS011;8878;-33.370;-70.552;2023-03-14T13:37:56;2.47;;;1.80;;
17520;SDS011;8878;-33.370;-70.552;2023-03-14T13:40:29;1.55;;;1.45;;
17520;SDS011;8878;-33.370;-70.552;2023-03-14T13:43:01;3.40;;;1.77;;
17520;SDS011;8878;-33.370;-70.552;2023-03-14T13:48:19;14.30;;;2.25;;
17520;SDS011;8878;-33.370;-70.552;2023-03-14T13:53:27;2.35;;;2.15;;
17520;SDS011;8878;-33.370;-70.552;2023-03-14T13:56:01;2.45;;;1.80;;
17520;SDS011;8878;-33.370;-70.552;2023-03-14T13:58:33;2.45;;;1.80;;
17520;SDS011;8878;-33.370;-70.552;2023-03-14T14:01:10;3.08;;;1.95;;
17520;SDS011;8878;-33.370;-70.552;2023-03-14T14:03:44;5.25;;;1.98;;
17520;SDS011;8878;-33.370;-70.552;2023-03-14T14:06:25;4.63;;;1.90;;
17520;SDS011;8878;-33.370;-70.552;2023-03-14T14:08:57;3.78;;;1.95;;
17520;SDS011;8878;-33.370;-70.552;2023-03-14T14:11:34;12.77;;;2.13;;
17520;SDS011;8878;-33.370;-70.552;2023-03-14T14:14:10;3.63;;;2.58;;
17520;SDS011;8878;-33.370;-70.552;2023-03-14T14:16:45;5.05;;;2.25;;
17520;SDS011;8878;-33.370;-70.552;2023-03-14T14:19:16;4.55;;;2.35;;
17520;SDS011;8878;-33.370;-70.552;2023-03-14T14:21:50;5.65;;;2.90;;
17520;SDS011;8878;-33.370;-70.552;2023-03-14T14:24:20;10.48;;;3.40;;
17520;SDS011;8878;-33.370;-70.552;2023-03-14T14:26:52;3.28;;;2.42;;
17520;SDS011;8878;-33.370;-70.552;2023-03-14T14:29:26;4.78;;;2.28;;
17520;SDS011;8878;-33.370;-70.552;2023-03-14T14:32:00;8.38;;;3.50;;
17520;SDS011;8878;-33.370;-70.552;2023-03-14T14:34:38;2.72;;;1.75;;
17520;SDS011;8878;-33.370;-70.552;2023-03-14T14:37:21;3.90;;;2.70;;
17520;SDS011;8878;-33.370;-70.552;2023-03-14T14:39:52;7.53;;;2.95;;
17520;SDS011;8878;-33.370;-70.552;2023-03-14T14:42:24;3.53;;;1.80;;
17520;SDS011;8878;-33.370;-70.552;2023-03-14T14:44:56;8.40;;;2.20;;
17520;SDS011;8878;-33.370;-70.552;2023-03-14T14:47:27;3.15;;;1.83;;
17520;SDS011;8878;-33.370;-70.552;2023-03-14T14:49:59;4.78;;;2.10;;
17520;SDS011;8878;-33.370;-70.552;2023-03-14T14:52:37;4.88;;;2.50;;
17520;SDS011;8878;-33.370;-70.552;2023-03-14T14:55:13;8.85;;;2.47;;
17520;SDS011;8878;-33.370;-70.552;2023-03-14T14:57:50;5.45;;;2.42;;
17520;SDS011;8878;-33.370;-70.552;2023-03-14T15:00:22;4.55;;;2.90;;
17520;SDS011;8878;-33.370;-70.552;2023-03-14T15:02:52;1.63;;;1.40;;
17520;SDS011;8878;-33.370;-70.552;2023-03-14T15:05:27;5.05;;;2.15;;
17520;SDS011;8878;-33.370;-70.552;2023-03-14T15:08:07;3.17;;;2.10;;
17520;SDS011;8878;-33.370;-70.552;2023-03-14T15:10:37;10.10;;;2.22;;
17520;SDS011;8878;-33.370;-70.552;2023-03-14T15:13:06;6.22;;;2.35;;
17520;SDS011;8878;-33.370;-70.552;2023-03-14T15:15:36;5.18;;;1.88;;
17520;SDS011;8878;-33.370;-70.552;2023-03-14T15:18:09;4.05;;;2.70;;